createdAt,value
2023-04-11T02:18:38.988Z,26.10
2023-04-11T03:20:13.870Z,22.00
2023-04-11T05:18:32.823Z,40.10
2023-04-11T05:21:02.310Z,29.10
2023-04-11T05:23:37.770Z,24.50
2023-04-11T05:26:27.848Z,27.60
2023-04-11T05:28:56.553Z,29.20
2023-04-11T05:31:29.202Z,28.40
2023-04-11T05:34:01.035Z,30.40
2023-04-11T05:36:52.410Z,34.20
2023-04-11T05:39:22.481Z,31.80
2023-04-11T05:41:51.352Z,28.40
2023-04-11T05:44:20.798Z,24.40
2023-04-11T05:46:50.501Z,26.70
2023-04-11T05:49:20.234Z,20.80
2023-04-11T05:51:54.019Z,22.40
2023-04-11T05:54:38.470Z,25.40
2023-04-11T05:57:10.232Z,25.80
2023-04-11T05:59:39.458Z,20.00
2023-04-11T06:02:08.446Z,17.70
2023-04-11T06:04:37.111Z,23.60
2023-04-11T06:07:08.497Z,18.10
2023-04-11T06:09:36.866Z,17.80
2023-04-11T06:20:45.643Z,15.40
2023-04-11T06:23:13.859Z,17.90
2023-04-11T06:25:40.725Z,19.10
2023-04-11T06:28:07.954Z,19.10
2023-04-11T06:30:35.409Z,20.80
2023-04-11T06:33:06.714Z,20.20
2023-04-11T06:35:36.864Z,20.60
2023-04-11T06:38:03.998Z,20.70
2023-04-11T06:40:30.916Z,18.30
2023-04-11T06:43:01.500Z,14.30
2023-04-11T06:47:58.493Z,18.80
2023-04-11T06:50:25.867Z,17.90
2023-04-11T06:52:57.889Z,11.80
2023-04-11T06:55:26.085Z,13.10
2023-04-11T06:57:53.521Z,15.80
2023-04-11T07:00:22.046Z,15.50
2023-04-11T07:02:54.156Z,18.90
2023-04-11T07:12:57.332Z,14.50
2023-04-11T07:15:34.120Z,16.10
2023-04-11T07:18:03.342Z,14.80
2023-04-11T07:20:34.790Z,14.30
2023-04-11T07:23:03.913Z,13.10
2023-04-11T07:25:33.913Z,11.90
2023-04-11T07:28:08.762Z,11.70
2023-04-11T07:30:38.424Z,13.90
2023-04-11T07:33:07.704Z,15.10
2023-04-11T07:35:41.259Z,14.80
2023-04-11T07:38:12.101Z,13.40
2023-04-11T07:40:42.029Z,9.00
2023-04-11T07:43:10.810Z,9.90
2023-04-11T07:45:40.744Z,11.60
2023-04-11T07:48:13.423Z,10.10
2023-04-11T07:50:42.821Z,9.60
2023-04-11T07:53:35.717Z,18.90
2023-04-11T07:56:10.628Z,13.70
2023-04-11T07:58:39.444Z,10.40
2023-04-11T08:01:21.476Z,9.00
2023-04-11T08:03:51.903Z,11.90
2023-04-11T08:06:40.656Z,10.10
2023-04-11T08:09:09.329Z,7.80
2023-04-11T08:11:39.538Z,7.70
2023-04-11T08:14:13.205Z,8.60
2023-04-11T08:16:42.635Z,11.20
2023-04-11T08:19:11.904Z,8.40
2023-04-11T08:21:46.596Z,11.60
2023-04-11T08:24:14.878Z,10.80
2023-04-11T08:26:43.823Z,10.60
2023-04-11T08:29:15.923Z,10.90
2023-04-11T08:31:45.683Z,8.60
2023-04-11T08:34:13.904Z,11.60
2023-04-11T08:36:45.721Z,10.30
2023-04-11T08:39:14.862Z,6.60
2023-04-11T08:41:44.544Z,14.40
2023-04-11T08:44:15.526Z,8.40
2023-04-11T08:49:12.643Z,7.50
2023-04-11T08:51:44.382Z,6.50
2023-04-11T08:54:12.829Z,9.50
2023-04-11T08:56:44.457Z,9.40
2023-04-11T08:59:16.115Z,8.20
2023-04-11T09:01:50.339Z,11.10
2023-04-11T09:04:18.757Z,10.80
2023-04-11T09:07:00.780Z,8.80
2023-04-11T09:09:31.097Z,9.40
2023-04-11T09:12:00.474Z,7.30
2023-04-11T09:14:29.382Z,15.60
2023-04-11T09:16:59.941Z,6.90
2023-04-11T09:24:18.528Z,25.50
2023-04-11T11:24:29.762Z,9.20
2023-04-11T11:27:00.669Z,10.10
2023-04-11T11:29:39.254Z,10.70
2023-04-11T11:32:06.186Z,9.50
2023-04-11T11:34:53.484Z,11.80
2023-04-11T11:37:20.990Z,10.60
2023-04-11T11:39:49.430Z,16.10
2023-04-11T11:42:19.952Z,10.70
2023-04-11T11:45:39.682Z,9.40
2023-04-11T11:48:09.941Z,10.80
2023-04-11T11:50:37.875Z,10.80
2023-04-11T11:53:15.910Z,12.60
2023-04-11T11:55:42.838Z,12.90
2023-04-11T11:58:09.872Z,9.70
2023-04-11T12:00:38.812Z,8.80
2023-04-11T12:03:10.055Z,15.50
2023-04-11T12:05:37.965Z,9.60
2023-04-11T12:08:06.828Z,16.40
2023-04-11T12:10:42.434Z,11.70
2023-04-11T12:13:11.912Z,5.80
2023-04-11T12:15:39.767Z,7.50
2023-04-11T12:18:09.474Z,5.90
2023-04-11T12:20:45.873Z,7.50
2023-04-11T12:23:12.687Z,8.70
2023-04-11T12:25:41.339Z,9.10
2023-04-11T12:28:10.244Z,5.00
2023-04-11T12:30:38.838Z,5.70
2023-04-11T12:33:06.895Z,8.50
2023-04-11T12:35:34.301Z,10.80
2023-04-11T12:38:24.026Z,3.30
2023-04-11T12:41:00.379Z,7.00
2023-04-11T12:43:36.620Z,9.10
2023-04-11T12:46:24.027Z,8.10
2023-04-11T12:48:52.214Z,10.80
2023-04-11T12:51:19.898Z,7.20
2023-04-11T12:53:47.662Z,5.00
2023-04-11T12:56:15.075Z,5.50
2023-04-11T12:58:44.291Z,5.70
2023-04-11T13:01:11.583Z,6.90
2023-04-11T13:03:39.692Z,8.00
2023-04-11T13:06:08.490Z,9.20
2023-04-11T13:08:35.922Z,5.40
2023-04-11T13:11:02.912Z,7.60
2023-04-11T13:13:33.810Z,7.40
2023-04-11T13:16:01.515Z,9.20
2023-04-11T13:18:50.547Z,8.20
2023-04-11T13:21:20.565Z,10.20
2023-04-11T13:23:49.554Z,7.60
2023-04-11T13:26:19.762Z,10.40
2023-04-11T13:28:47.182Z,5.80
2023-04-11T13:31:25.826Z,6.50
2023-04-11T13:33:53.273Z,3.60
2023-04-11T13:36:20.237Z,5.20
2023-04-11T13:38:48.798Z,6.80
2023-04-11T13:41:18.218Z,4.80
2023-04-11T13:43:49.432Z,4.20
2023-04-11T13:46:16.519Z,8.00
2023-04-11T13:48:44.208Z,5.30
2023-04-11T13:51:11.796Z,4.80
2023-04-11T13:53:39.055Z,7.40
2023-04-11T13:56:10.737Z,14.30
2023-04-11T13:58:38.316Z,6.10
2023-04-11T14:01:06.192Z,10.00
2023-04-11T14:03:34.659Z,6.80
2023-04-11T14:06:04.951Z,6.80
2023-04-11T14:08:32.290Z,9.40
2023-04-11T14:10:59.446Z,6.90
2023-04-11T14:13:26.891Z,4.50
2023-04-11T14:21:52.097Z,3.90
2023-04-11T14:24:23.858Z,6.40
2023-04-11T14:26:53.214Z,4.90
2023-04-11T14:29:23.043Z,9.10
2023-04-11T14:31:51.657Z,9.80
2023-04-11T14:34:20.179Z,14.50
2023-04-11T14:36:51.302Z,12.10
2023-04-11T14:39:21.054Z,15.60
2023-04-11T14:41:49.711Z,14.70
2023-04-11T14:44:18.148Z,10.60
2023-04-11T14:46:50.250Z,10.60
2023-04-11T14:49:18.743Z,6.10
2023-04-11T14:51:53.181Z,8.50
2023-04-11T14:54:23.583Z,8.10
2023-04-11T14:56:52.609Z,10.80
2023-04-11T14:59:22.231Z,12.40
2023-04-11T15:01:50.640Z,8.40
2023-04-11T15:04:19.268Z,7.50
2023-04-11T15:06:49.384Z,11.30
2023-04-11T15:09:20.396Z,4.80
2023-04-11T15:11:49.083Z,5.20
2023-04-11T15:14:17.675Z,8.70
2023-04-11T15:16:46.248Z,6.00
2023-04-11T15:19:14.533Z,3.80
2023-04-11T15:21:46.794Z,6.90
2023-04-11T15:24:17.090Z,7.60
2023-04-11T15:26:48.334Z,4.70
2023-04-11T15:29:22.642Z,5.30
2023-04-11T15:31:51.294Z,8.60
2023-04-11T15:34:22.236Z,14.30
2023-04-11T15:36:57.061Z,10.00
2023-04-11T15:39:25.919Z,9.70
2023-04-11T15:41:54.134Z,10.20
2023-04-11T15:44:22.475Z,10.10
2023-04-11T15:46:51.205Z,6.10
2023-04-11T15:49:19.652Z,5.60
2023-04-11T15:51:48.329Z,9.20
2023-04-11T15:54:16.639Z,9.40
2023-04-11T15:56:44.976Z,8.80
2023-04-11T15:59:15.925Z,6.70
2023-04-11T16:01:46.267Z,6.80
2023-04-11T16:06:45.426Z,4.50
2023-04-11T16:09:14.148Z,8.90
2023-04-11T16:11:44.071Z,13.70
2023-04-11T16:14:13.019Z,10.90
2023-04-11T16:19:16.248Z,7.60
2023-04-11T16:21:44.869Z,11.30
2023-04-11T16:32:05.400Z,15.40
2023-04-11T16:34:34.374Z,10.50
2023-04-11T16:37:03.679Z,11.90
2023-04-11T16:39:32.900Z,16.10
2023-04-11T16:42:02.074Z,24.20
2023-04-11T16:44:30.317Z,10.30
2023-04-11T16:46:58.734Z,10.90
2023-04-11T16:49:27.030Z,14.50
2023-04-11T16:51:57.837Z,12.80
2023-04-11T16:54:26.449Z,10.50
2023-04-11T16:57:01.809Z,12.00
2023-04-11T16:59:30.485Z,16.00
2023-04-11T17:02:01.774Z,15.70
2023-04-11T17:04:30.526Z,12.30
2023-04-11T17:06:58.919Z,16.80
2023-04-11T17:09:27.575Z,18.20
2023-04-11T17:20:51.846Z,14.40
2023-04-11T19:21:48.872Z,19.30
2023-04-11T21:17:52.378Z,10.00
2023-04-11T22:05:44.836Z,8.20
